createdAt,value
2023-01-25T00:01:11.081Z,48.93
2023-01-25T00:03:13.292Z,43.07
2023-01-25T00:05:15.578Z,40.50
2023-01-25T00:07:17.678Z,33.70
2023-01-25T00:09:20.544Z,39.00
2023-01-25T00:11:22.721Z,38.97
2023-01-25T00:13:24.865Z,41.90
2023-01-25T00:15:26.945Z,36.80
2023-01-25T00:17:29.124Z,37.87
2023-01-25T00:19:31.214Z,42.47
2023-01-25T00:21:34.263Z,37.70
2023-01-25T00:23:36.367Z,44.60
2023-01-25T00:25:38.472Z,38.60
2023-01-25T00:27:40.546Z,40.40
2023-01-25T00:29:42.768Z,42.80
2023-01-25T00:32:01.745Z,42.70
2023-01-25T00:34:25.149Z,39.73
2023-01-25T00:36:39.289Z,42.37
2023-01-25T00:38:43.501Z,40.23
2023-01-25T00:40:49.513Z,41.93
2023-01-25T00:42:52.089Z,36.20
2023-01-25T00:44:54.979Z,49.57
2023-01-25T00:46:57.120Z,33.67
2023-01-25T00:48:59.425Z,36.40
2023-01-25T00:51:02.085Z,36.80
2023-01-25T00:53:04.418Z,42.97
2023-01-25T00:55:07.351Z,40.30
2023-01-25T00:57:09.906Z,43.57
2023-01-25T00:59:12.862Z,45.60
2023-01-25T01:01:15.654Z,44.13
2023-01-25T01:03:17.873Z,36.47
2023-01-25T01:05:21.186Z,40.93
2023-01-25T01:07:23.476Z,39.57
2023-01-25T01:09:27.564Z,46.53
2023-01-25T01:11:31.477Z,43.73
2023-01-25T01:13:34.122Z,44.33
2023-01-25T01:15:37.374Z,45.30
2023-01-25T01:17:39.592Z,47.53
2023-01-25T01:19:42.108Z,40.97
2023-01-25T01:21:44.252Z,47.80
2023-01-25T01:23:46.587Z,42.83
2023-01-25T01:25:48.820Z,50.93
2023-01-25T01:27:51.457Z,48.83
2023-01-25T01:29:53.570Z,51.47
2023-01-25T01:31:56.491Z,45.83
2023-01-25T01:34:01.195Z,50.50
2023-01-25T01:36:16.910Z,50.00
2023-01-25T01:38:19.135Z,43.87
2023-01-25T01:40:21.592Z,50.10
2023-01-25T01:42:23.725Z,49.03
2023-01-25T01:44:48.764Z,51.73
2023-01-25T01:46:55.565Z,64.67
2023-01-25T01:49:06.305Z,52.03
2023-01-25T01:51:26.988Z,50.37
2023-01-25T01:53:31.174Z,56.27
2023-01-25T01:55:33.799Z,55.40
2023-01-25T01:57:42.793Z,62.30
2023-01-25T01:59:50.047Z,53.20
2023-01-25T02:01:52.399Z,51.77
2023-01-25T02:03:55.148Z,60.13
2023-01-25T02:06:04.701Z,48.80
2023-01-25T02:08:10.046Z,46.83
2023-01-25T02:10:12.666Z,48.83
2023-01-25T02:12:18.511Z,55.20
2023-01-25T02:14:21.019Z,55.27
2023-01-25T02:16:26.493Z,66.93
2023-01-25T02:18:29.127Z,46.80
2023-01-25T02:20:43.808Z,51.10
2023-01-25T02:23:12.298Z,54.13
2023-01-25T02:25:17.041Z,55.13
2023-01-25T02:27:19.317Z,58.93
2023-01-25T02:29:24.206Z,44.13
2023-01-25T02:31:27.822Z,44.77
2023-01-25T02:33:30.156Z,45.40
2023-01-25T02:35:42.895Z,50.37
2023-01-25T02:37:45.175Z,57.17
2023-01-25T02:39:47.641Z,49.87
2023-01-25T02:41:49.955Z,55.47
2023-01-25T02:43:52.468Z,42.63
2023-01-25T02:45:59.899Z,50.70
2023-01-25T02:48:02.777Z,38.37
2023-01-25T02:50:05.525Z,41.67
2023-01-25T02:52:08.054Z,38.40
2023-01-25T02:54:11.776Z,44.60
2023-01-25T02:56:13.982Z,33.37
2023-01-25T02:58:16.134Z,42.23
2023-01-25T03:00:18.392Z,42.23
2023-01-25T03:02:21.453Z,34.90
2023-01-25T03:04:23.880Z,40.27
2023-01-25T03:06:26.119Z,39.77
2023-01-25T03:08:28.267Z,38.17
2023-01-25T03:10:30.449Z,30.07
2023-01-25T03:12:33.370Z,46.17
2023-01-25T03:14:35.544Z,38.73
2023-01-25T03:16:38.358Z,33.43
2023-01-25T03:18:41.606Z,35.23
2023-01-25T03:20:43.951Z,36.03
2023-01-25T03:22:46.087Z,32.43
2023-01-25T03:24:48.490Z,32.13
2023-01-25T03:27:09.511Z,29.33
2023-01-25T03:29:17.000Z,36.37
2023-01-25T03:31:21.137Z,30.83
2023-01-25T03:33:23.526Z,30.57
2023-01-25T03:35:25.748Z,34.57
2023-01-25T03:37:31.121Z,31.30
2023-01-25T03:39:34.105Z,34.27
2023-01-25T03:41:36.235Z,39.87
2023-01-25T03:43:38.816Z,32.53
2023-01-25T03:45:41.186Z,30.90
2023-01-25T03:47:43.342Z,35.03
2023-01-25T03:49:45.506Z,34.63
2023-01-25T03:51:49.657Z,33.17
2023-01-25T03:53:53.242Z,37.10
2023-01-25T03:56:04.838Z,33.50
2023-01-25T03:58:07.125Z,33.03
2023-01-25T04:00:12.944Z,33.50
2023-01-25T04:02:20.161Z,35.47
2023-01-25T04:04:22.347Z,29.87
2023-01-25T04:06:25.215Z,33.33
2023-01-25T04:08:27.857Z,34.53
2023-01-25T04:10:29.993Z,30.40
2023-01-25T04:12:32.445Z,31.70
2023-01-25T04:14:44.052Z,31.73
2023-01-25T04:16:51.734Z,28.17
2023-01-25T04:19:23.079Z,34.70
2023-01-25T04:21:25.623Z,29.83
2023-01-25T04:23:28.221Z,39.77
2023-01-25T04:25:30.332Z,38.67
2023-01-25T04:27:33.153Z,39.73
2023-01-25T04:29:47.986Z,31.03
2023-01-25T04:31:54.271Z,30.80
2023-01-25T04:33:56.522Z,28.30
2023-01-25T04:35:59.057Z,27.40
2023-01-25T04:38:02.232Z,29.97
2023-01-25T04:40:13.760Z,27.80
2023-01-25T04:42:19.661Z,29.50
2023-01-25T04:44:25.278Z,32.53
2023-01-25T04:46:27.452Z,37.87
2023-01-25T04:48:29.955Z,29.83
2023-01-25T04:50:37.296Z,30.80
2023-01-25T04:52:40.049Z,32.90
2023-01-25T04:54:42.431Z,39.70
2023-01-25T04:56:46.433Z,35.57
2023-01-25T04:58:48.734Z,36.40
2023-01-25T05:00:51.010Z,33.20
2023-01-25T05:02:53.970Z,39.83
2023-01-25T05:04:56.117Z,36.83
2023-01-25T05:06:58.235Z,34.40
2023-01-25T05:09:01.880Z,33.70
2023-01-25T05:11:04.254Z,36.73
2023-01-25T05:13:24.625Z,38.30
2023-01-25T05:15:34.813Z,33.23
2023-01-25T05:17:37.992Z,30.20
2023-01-25T05:19:40.837Z,34.93
2023-01-25T05:22:00.340Z,29.97
2023-01-25T05:24:23.028Z,41.20
2023-01-25T05:26:43.820Z,41.97
2023-01-25T05:28:45.992Z,29.30
2023-01-25T05:30:56.275Z,37.80
2023-01-25T05:33:02.464Z,35.63
2023-01-25T05:35:06.611Z,35.07
2023-01-25T05:37:10.862Z,34.03
2023-01-25T05:39:16.334Z,33.83
2023-01-25T05:41:20.077Z,36.23
2023-01-25T05:43:24.306Z,36.10
2023-01-25T05:45:26.986Z,38.60
2023-01-25T05:47:30.368Z,35.00
2023-01-25T05:49:32.537Z,32.67
2023-01-25T05:51:35.708Z,33.63
2023-01-25T05:53:37.909Z,35.73
2023-01-25T05:55:40.132Z,38.10
2023-01-25T05:57:45.471Z,36.07
2023-01-25T05:59:47.607Z,34.27
2023-01-25T06:01:53.408Z,33.27
2023-01-25T06:03:55.785Z,39.30
2023-01-25T06:06:02.459Z,36.03
2023-01-25T06:08:06.042Z,37.90
2023-01-25T06:10:17.514Z,32.47
2023-01-25T06:12:22.320Z,31.57
2023-01-25T06:14:25.160Z,28.50
2023-01-25T06:16:27.995Z,35.23
2023-01-25T06:18:31.512Z,36.97
2023-01-25T06:20:52.512Z,34.00
2023-01-25T06:23:00.630Z,37.43
2023-01-25T06:25:02.709Z,35.10
2023-01-25T06:27:05.062Z,35.00
2023-01-25T06:29:07.224Z,31.20
2023-01-25T06:31:12.108Z,34.77
2023-01-25T06:33:14.399Z,32.63
2023-01-25T06:35:16.616Z,36.20
2023-01-25T06:37:20.269Z,33.43
2023-01-25T06:39:22.361Z,33.07
2023-01-25T06:41:24.526Z,36.23
2023-01-25T06:43:27.100Z,39.30
2023-01-25T06:45:29.215Z,33.73
2023-01-25T06:47:31.435Z,35.67
2023-01-25T06:49:33.538Z,38.07
2023-01-25T06:51:35.659Z,48.63
2023-01-25T06:53:39.753Z,37.80
2023-01-25T06:55:41.883Z,37.00
2023-01-25T06:57:44.003Z,41.67
2023-01-25T06:59:46.136Z,40.60
2023-01-25T07:01:48.261Z,44.40
2023-01-25T07:03:51.787Z,41.50
2023-01-25T07:05:58.962Z,33.97
2023-01-25T07:08:01.263Z,43.47
2023-01-25T07:10:03.812Z,55.80
2023-01-25T07:12:06.448Z,35.93
2023-01-25T07:14:08.630Z,42.77
2023-01-25T07:16:13.690Z,39.33
2023-01-25T07:18:16.793Z,42.60
2023-01-25T07:20:18.977Z,48.43
2023-01-25T07:22:21.109Z,43.70
2023-01-25T07:24:27.216Z,38.40
2023-01-25T07:26:29.889Z,45.40
2023-01-25T07:28:33.015Z,47.70
2023-01-25T07:30:35.116Z,33.00
2023-01-25T07:32:37.116Z,38.03
2023-01-25T07:34:39.087Z,34.30
2023-01-25T07:36:41.529Z,39.80
2023-01-25T07:38:43.822Z,38.10
2023-01-25T07:40:53.245Z,43.10
2023-01-25T07:42:55.316Z,40.83
2023-01-25T07:44:59.690Z,39.93
2023-01-25T07:47:02.128Z,35.73
2023-01-25T07:49:04.160Z,44.50
2023-01-25T07:51:23.233Z,39.33
2023-01-25T07:53:25.278Z,41.90
2023-01-25T07:55:27.261Z,48.23
2023-01-25T07:57:29.391Z,42.43
2023-01-25T07:59:32.093Z,46.27
2023-01-25T08:01:34.986Z,44.30
2023-01-25T08:03:37.231Z,48.07
2023-01-25T08:05:44.669Z,47.77
2023-01-25T08:07:47.369Z,44.30
2023-01-25T08:09:49.315Z,41.77
2023-01-25T08:11:53.478Z,45.47
2023-01-25T08:13:55.944Z,41.33
2023-01-25T08:15:57.912Z,37.10
2023-01-25T08:18:00.150Z,41.80
2023-01-25T08:20:02.771Z,36.03
2023-01-25T08:22:07.661Z,42.77
2023-01-25T08:24:09.892Z,33.57
2023-01-25T08:26:13.761Z,40.17
2023-01-25T08:28:15.772Z,42.63
2023-01-25T08:30:18.068Z,36.13
2023-01-25T08:32:20.098Z,44.33
2023-01-25T08:34:22.213Z,41.77
2023-01-25T08:36:24.471Z,37.60
2023-01-25T08:38:26.551Z,47.07
2023-01-25T08:40:28.562Z,42.67
2023-01-25T08:42:30.514Z,47.53
2023-01-25T08:44:32.701Z,43.40
2023-01-25T08:46:34.748Z,43.00
2023-01-25T08:48:36.861Z,45.07
2023-01-25T08:50:38.888Z,48.23
2023-01-25T08:52:41.100Z,43.83
2023-01-25T08:54:44.374Z,56.20
2023-01-25T08:56:46.418Z,49.47
2023-01-25T08:58:50.074Z,48.80
2023-01-25T09:00:53.038Z,41.73
2023-01-25T09:02:55.079Z,47.30
2023-01-25T09:04:57.186Z,52.37
2023-01-25T09:06:59.153Z,55.03
2023-01-25T09:09:01.195Z,48.43
2023-01-25T09:11:08.167Z,51.20
2023-01-25T09:13:10.147Z,54.37
2023-01-25T09:15:12.315Z,50.80
2023-01-25T09:17:14.369Z,49.33
2023-01-25T09:19:16.434Z,43.07
2023-01-25T09:21:19.173Z,52.03
2023-01-25T09:23:23.787Z,47.70
2023-01-25T09:25:25.870Z,49.13
2023-01-25T09:27:27.908Z,45.50
2023-01-25T09:29:29.901Z,44.73
2023-01-25T09:31:32.244Z,45.67
2023-01-25T09:33:58.485Z,48.33
2023-01-25T09:36:01.596Z,46.03
2023-01-25T09:38:03.534Z,59.80
2023-01-25T09:40:07.546Z,54.30
2023-01-25T09:42:32.727Z,43.87
2023-01-25T09:45:05.312Z,57.33
2023-01-25T09:47:13.812Z,51.93
2023-01-25T09:49:26.840Z,48.60
2023-01-25T09:51:58.040Z,50.50
2023-01-25T09:54:01.149Z,48.00
2023-01-25T09:56:13.547Z,59.63
2023-01-25T09:58:21.131Z,49.30
2023-01-25T10:00:28.668Z,42.60
2023-01-25T10:02:30.679Z,45.33
2023-01-25T10:04:42.936Z,42.93
2023-01-25T10:07:02.230Z,46.30
2023-01-25T10:09:12.948Z,41.70
2023-01-25T10:11:24.634Z,49.13
2023-01-25T10:13:31.797Z,46.07
2023-01-25T10:15:43.696Z,43.33
2023-01-25T10:17:46.316Z,39.07
2023-01-25T10:19:59.060Z,42.50
2023-01-25T10:22:24.961Z,39.23
2023-01-25T10:24:42.163Z,44.50
2023-01-25T10:26:49.152Z,34.37
2023-01-25T10:29:14.127Z,41.53
2023-01-25T10:31:21.080Z,46.90
2023-01-25T10:33:23.105Z,41.10
2023-01-25T10:35:35.882Z,40.20
2023-01-25T10:37:39.424Z,49.40
2023-01-25T10:39:49.711Z,39.80
2023-01-25T10:41:57.927Z,39.97
2023-01-25T10:44:18.638Z,40.13
2023-01-25T10:46:24.187Z,42.60
2023-01-25T10:48:32.969Z,38.50
2023-01-25T10:50:47.078Z,41.37
2023-01-25T10:52:57.836Z,50.80
2023-01-25T10:55:15.017Z,46.73
2023-01-25T10:57:21.332Z,49.10
2023-01-25T10:59:26.144Z,49.70
2023-01-25T11:01:33.518Z,46.07
2023-01-25T11:03:47.479Z,42.07
2023-01-25T11:05:57.001Z,43.53
2023-01-25T11:08:00.133Z,41.27
2023-01-25T11:10:02.128Z,40.13
2023-01-25T11:12:11.822Z,40.37
2023-01-25T11:14:16.869Z,34.03
2023-01-25T11:16:18.901Z,33.63
2023-01-25T11:18:22.161Z,37.63
2023-01-25T11:20:24.207Z,39.20
2023-01-25T11:22:26.447Z,42.30
2023-01-25T11:24:33.468Z,48.47
2023-01-25T11:26:40.242Z,42.63
2023-01-25T11:28:50.060Z,40.37
2023-01-25T11:30:53.126Z,40.60
2023-01-25T11:32:55.396Z,33.63
2023-01-25T11:34:57.578Z,42.00
2023-01-25T11:37:27.000Z,42.80
2023-01-25T11:39:53.660Z,46.20
2023-01-25T11:42:09.230Z,42.17
2023-01-25T11:44:22.658Z,49.70
2023-01-25T11:46:27.642Z,45.27
2023-01-25T11:48:43.807Z,48.40
2023-01-25T11:50:50.088Z,45.27
2023-01-25T11:53:00.631Z,46.20
2023-01-25T11:55:21.025Z,50.83
2023-01-25T11:57:29.307Z,38.33
2023-01-25T11:59:31.363Z,41.20
2023-01-25T12:01:39.230Z,38.00
2023-01-25T12:03:41.228Z,38.17
2023-01-25T12:06:07.665Z,50.57
2023-01-25T12:08:18.072Z,46.97
2023-01-25T12:10:26.059Z,37.27
2023-01-25T12:12:46.428Z,38.27
2023-01-25T12:14:57.530Z,44.83
2023-01-25T12:17:08.711Z,42.73
2023-01-25T12:19:32.240Z,33.53
2023-01-25T12:21:43.759Z,41.07
2023-01-25T12:24:08.629Z,35.33
2023-01-25T12:26:48.991Z,31.87
2023-01-25T12:28:57.605Z,35.03
2023-01-25T12:31:22.448Z,36.40
2023-01-25T12:33:47.857Z,35.10
2023-01-25T12:35:56.840Z,42.30
2023-01-25T12:38:04.711Z,33.70
2023-01-25T12:40:13.665Z,32.90
2023-01-25T12:42:20.428Z,37.70
2023-01-25T12:44:42.320Z,38.63
2023-01-25T12:46:47.152Z,35.57
2023-01-25T12:48:51.082Z,43.10
2023-01-25T12:50:58.076Z,45.17
2023-01-25T12:53:06.652Z,40.90
2023-01-25T12:55:14.662Z,38.47
2023-01-25T12:57:36.034Z,47.20
2023-01-25T12:59:44.156Z,41.87
2023-01-25T13:02:09.094Z,39.80
2023-01-25T13:04:26.190Z,40.87
2023-01-25T13:06:39.510Z,34.83
2023-01-25T13:08:59.694Z,41.03
2023-01-25T13:11:20.404Z,39.27
2023-01-25T13:13:25.697Z,38.77
2023-01-25T13:15:38.033Z,34.40
2023-01-25T13:17:40.688Z,120.30
2023-01-25T13:19:43.134Z,108.73
2023-01-25T13:21:46.702Z,76.40
2023-01-25T13:24:20.666Z,44.00
2023-01-25T13:26:23.828Z,36.60
2023-01-25T13:28:45.122Z,39.77
2023-01-25T13:30:53.806Z,40.97
2023-01-25T13:32:59.193Z,39.23
2023-01-25T13:35:01.641Z,40.30
2023-01-25T13:37:05.587Z,46.60
2023-01-25T13:39:27.098Z,43.90
2023-01-25T13:41:29.204Z,63.03
2023-01-25T13:43:31.312Z,49.10
2023-01-25T13:45:35.713Z,53.63
2023-01-25T13:47:38.283Z,43.63
2023-01-25T13:49:43.312Z,91.73
2023-01-25T13:51:45.338Z,46.53
2023-01-25T13:53:58.413Z,45.80
2023-01-25T13:56:01.429Z,51.47
2023-01-25T13:58:37.351Z,48.90
2023-01-25T14:00:48.372Z,50.30
2023-01-25T14:02:56.443Z,40.17
2023-01-25T14:04:58.673Z,47.03
2023-01-25T14:07:09.810Z,47.80
2023-01-25T14:09:17.317Z,44.40
2023-01-25T14:11:21.091Z,44.53
2023-01-25T14:13:23.185Z,39.03
2023-01-25T14:15:30.357Z,44.23
2023-01-25T14:17:32.396Z,41.97
2023-01-25T14:19:39.272Z,40.90
2023-01-25T14:21:41.275Z,44.03
2023-01-25T14:23:43.417Z,35.70
2023-01-25T14:25:45.435Z,43.37
2023-01-25T14:27:50.539Z,41.17
2023-01-25T14:29:52.612Z,48.73
2023-01-25T14:31:54.799Z,52.73
2023-01-25T14:33:59.947Z,47.03
2023-01-25T14:36:24.157Z,52.67
2023-01-25T14:38:35.462Z,44.53
2023-01-25T14:40:37.557Z,45.23
2023-01-25T14:42:39.668Z,43.80
2023-01-25T14:44:42.200Z,41.63
2023-01-25T14:46:44.198Z,59.30
2023-01-25T14:48:47.107Z,83.03
2023-01-25T14:50:49.185Z,69.07
2023-01-25T14:52:51.333Z,54.87
2023-01-25T14:54:56.307Z,48.50
2023-01-25T14:57:00.732Z,52.10
2023-01-25T14:59:04.841Z,53.87
2023-01-25T15:01:07.169Z,53.50
2023-01-25T15:03:15.941Z,46.27
2023-01-25T15:05:29.639Z,42.37
2023-01-25T15:07:33.802Z,37.90
2023-01-25T15:09:37.717Z,48.37
2023-01-25T15:11:45.536Z,51.70
2023-01-25T15:13:47.915Z,43.67
2023-01-25T15:15:57.768Z,75.07
2023-01-25T15:18:00.250Z,71.40
2023-01-25T15:20:02.280Z,51.53
2023-01-25T15:22:05.227Z,45.20
2023-01-25T15:24:10.870Z,41.13
2023-01-25T15:26:19.940Z,49.03
2023-01-25T15:28:23.833Z,45.50
2023-01-25T15:30:26.004Z,53.10
2023-01-25T15:32:28.087Z,47.43
2023-01-25T15:34:32.885Z,49.80
2023-01-25T15:36:34.963Z,56.93
2023-01-25T15:38:37.458Z,58.30
2023-01-25T15:40:39.491Z,74.60
2023-01-25T15:42:41.577Z,57.70
2023-01-25T15:44:43.507Z,50.63
2023-01-25T15:46:46.763Z,54.43
2023-01-25T15:48:50.232Z,50.50
2023-01-25T15:50:54.210Z,48.93
2023-01-25T15:52:56.280Z,68.07
2023-01-25T15:55:01.662Z,58.67
2023-01-25T15:57:04.123Z,57.10
2023-01-25T15:59:07.929Z,64.47
2023-01-25T16:01:10.141Z,60.20
2023-01-25T16:03:13.048Z,88.57
2023-01-25T16:05:15.241Z,60.17
2023-01-25T16:07:23.510Z,54.07
2023-01-25T16:09:28.439Z,49.57
2023-01-25T16:11:30.374Z,50.83
2023-01-25T16:13:32.388Z,51.67
2023-01-25T16:15:34.413Z,47.27
2023-01-25T16:17:36.397Z,50.57
2023-01-25T16:19:38.462Z,54.50
2023-01-25T16:21:41.219Z,53.17
2023-01-25T16:23:43.336Z,55.83
2023-01-25T16:25:48.379Z,58.53
2023-01-25T16:27:50.614Z,59.37
2023-01-25T16:29:52.996Z,53.90
2023-01-25T16:31:56.089Z,39.83
2023-01-25T16:33:58.248Z,51.10
2023-01-25T16:36:14.813Z,56.27
2023-01-25T16:38:16.770Z,79.00
2023-01-25T16:40:23.592Z,61.60
2023-01-25T16:42:25.572Z,58.87
2023-01-25T16:44:27.631Z,61.03
2023-01-25T16:46:29.651Z,52.13
2023-01-25T16:48:31.587Z,60.20
2023-01-25T16:50:33.672Z,56.60
2023-01-25T16:52:35.668Z,47.97
2023-01-25T16:54:37.776Z,57.10
2023-01-25T16:56:40.056Z,52.87
2023-01-25T16:58:42.052Z,56.50
2023-01-25T17:00:43.995Z,49.33
2023-01-25T17:02:58.199Z,55.30
2023-01-25T17:05:01.277Z,51.43
2023-01-25T17:07:03.278Z,63.67
2023-01-25T17:09:21.682Z,52.67
2023-01-25T17:11:25.205Z,59.63
2023-01-25T17:13:27.277Z,49.83
2023-01-25T17:15:29.443Z,50.17
2023-01-25T17:17:31.748Z,51.10
2023-01-25T17:19:33.738Z,55.43
2023-01-25T17:21:35.732Z,51.77
2023-01-25T17:23:38.183Z,54.93
2023-01-25T17:25:40.743Z,53.40
2023-01-25T17:27:42.920Z,55.97
2023-01-25T17:29:46.040Z,53.87
2023-01-25T17:31:48.693Z,52.47
2023-01-25T17:33:51.026Z,54.87
2023-01-25T17:35:58.312Z,41.00
2023-01-25T17:38:00.496Z,56.93
2023-01-25T17:40:02.929Z,50.63
2023-01-25T17:42:06.454Z,50.20
2023-01-25T17:44:08.593Z,49.57
2023-01-25T17:46:15.647Z,44.57
2023-01-25T17:48:17.804Z,45.20
2023-01-25T17:50:19.936Z,46.73
2023-01-25T17:52:22.159Z,46.87
2023-01-25T17:54:24.281Z,45.30
2023-01-25T17:56:26.905Z,50.77
2023-01-25T17:58:29.805Z,44.80
2023-01-25T18:00:32.378Z,41.87
2023-01-25T18:02:36.149Z,41.93
2023-01-25T18:04:38.357Z,49.73
2023-01-25T18:06:40.653Z,47.13
2023-01-25T18:08:45.593Z,43.73
2023-01-25T18:10:47.679Z,49.00
2023-01-25T18:13:03.742Z,46.30
2023-01-25T18:15:07.716Z,47.60
2023-01-25T18:17:10.003Z,49.43
2023-01-25T18:19:12.868Z,54.10
2023-01-25T18:21:17.160Z,45.40
2023-01-25T18:23:19.293Z,52.70
2023-01-25T18:25:35.823Z,69.50
2023-01-25T18:27:37.924Z,55.83
2023-01-25T18:29:47.972Z,50.70
2023-01-25T18:31:51.062Z,54.40
2023-01-25T18:33:53.400Z,53.50
2023-01-25T18:35:57.457Z,54.70
2023-01-25T18:37:59.921Z,50.87
2023-01-25T18:40:02.044Z,50.20
2023-01-25T18:42:04.413Z,43.43
2023-01-25T18:44:06.572Z,49.60
2023-01-25T18:46:09.120Z,54.53
2023-01-25T18:48:13.475Z,45.83
2023-01-25T18:50:16.400Z,49.73
2023-01-25T18:52:20.194Z,56.87
2023-01-25T18:54:23.616Z,56.60
2023-01-25T18:56:27.346Z,52.23
2023-01-25T18:58:33.034Z,46.23
2023-01-25T19:00:35.250Z,53.57
2023-01-25T19:02:37.935Z,44.33
2023-01-25T19:04:40.333Z,50.50
2023-01-25T19:06:42.657Z,42.13
2023-01-25T19:08:49.665Z,43.40
2023-01-25T19:10:58.538Z,42.30
2023-01-25T19:13:00.765Z,48.30
2023-01-25T19:15:02.999Z,43.40
2023-01-25T19:17:07.475Z,42.43
2023-01-25T19:19:09.844Z,51.33
2023-01-25T19:21:13.582Z,48.57
2023-01-25T19:23:15.800Z,46.33
2023-01-25T19:25:18.173Z,46.33
2023-01-25T19:27:20.549Z,50.00
2023-01-25T19:29:22.693Z,49.10
2023-01-25T19:31:26.390Z,39.17
2023-01-25T19:33:28.627Z,42.10
2023-01-25T19:35:30.829Z,48.20
2023-01-25T19:37:33.275Z,54.80
2023-01-25T19:39:35.915Z,44.17
2023-01-25T19:41:41.139Z,52.00
2023-01-25T19:43:43.675Z,50.97
2023-01-25T19:45:45.839Z,41.97
2023-01-25T19:47:47.980Z,54.00
2023-01-25T19:49:50.261Z,41.73
2023-01-25T19:51:55.540Z,52.90
2023-01-25T19:54:05.214Z,55.10
2023-01-25T19:56:09.177Z,48.10
2023-01-25T19:58:12.568Z,43.67
2023-01-25T20:00:15.235Z,49.30
2023-01-25T20:02:17.310Z,47.60
2023-01-25T20:04:22.391Z,46.70
2023-01-25T20:06:25.307Z,45.37
2023-01-25T20:08:31.525Z,49.90
2023-01-25T20:10:34.569Z,44.80
2023-01-25T20:12:36.694Z,43.90
2023-01-25T20:14:39.195Z,43.13
2023-01-25T20:16:41.522Z,43.43
2023-01-25T20:18:44.678Z,49.73
2023-01-25T20:20:55.155Z,52.23
2023-01-25T20:22:57.229Z,49.83
2023-01-25T20:24:59.350Z,48.20
2023-01-25T20:27:04.189Z,48.97
2023-01-25T20:29:07.594Z,52.70
2023-01-25T20:31:25.096Z,49.70
2023-01-25T20:33:27.264Z,54.63
2023-01-25T20:35:30.122Z,50.90
2023-01-25T20:37:32.256Z,56.67
2023-01-25T20:39:34.415Z,54.87
2023-01-25T20:41:36.615Z,50.50
2023-01-25T20:43:38.755Z,54.60
2023-01-25T20:45:40.856Z,63.47
2023-01-25T20:47:43.108Z,48.67
2023-01-25T20:49:45.391Z,62.00
2023-01-25T20:51:47.706Z,56.90
2023-01-25T20:53:50.401Z,54.60
2023-01-25T20:55:56.103Z,52.90
2023-01-25T20:57:58.284Z,45.60
2023-01-25T21:00:00.598Z,45.80
2023-01-25T21:02:02.821Z,46.47
2023-01-25T21:04:07.441Z,47.73
2023-01-25T21:06:10.125Z,39.23
2023-01-25T21:08:12.221Z,50.07
2023-01-25T21:10:14.509Z,41.83
2023-01-25T21:12:16.697Z,51.37
2023-01-25T21:14:20.241Z,48.90
2023-01-25T21:16:22.968Z,42.47
2023-01-25T21:18:28.037Z,44.70
2023-01-25T21:20:30.271Z,45.13
2023-01-25T21:22:32.474Z,42.63
2023-01-25T21:24:34.649Z,49.17
2023-01-25T21:26:38.257Z,42.83
2023-01-25T21:28:40.438Z,45.07
2023-01-25T21:30:42.554Z,46.10
2023-01-25T21:32:44.692Z,45.33
2023-01-25T21:34:47.056Z,43.03
2023-01-25T21:36:49.168Z,42.63
2023-01-25T21:38:53.021Z,38.07
2023-01-25T21:41:02.973Z,41.40
2023-01-25T21:43:05.128Z,39.13
2023-01-25T21:45:27.192Z,43.10
2023-01-25T21:47:32.383Z,45.63
2023-01-25T21:49:53.335Z,48.70
2023-01-25T21:52:01.996Z,47.10
2023-01-25T21:54:05.405Z,44.67
2023-01-25T21:56:07.910Z,41.93
2023-01-25T21:58:10.604Z,43.23
2023-01-25T22:00:15.976Z,44.13
2023-01-25T22:02:18.126Z,48.40
2023-01-25T22:04:21.313Z,43.10
2023-01-25T22:06:23.528Z,45.40
2023-01-25T22:08:25.640Z,41.43
2023-01-25T22:10:27.804Z,44.47
2023-01-25T22:12:29.955Z,47.37
2023-01-25T22:14:32.099Z,44.90
2023-01-25T22:16:34.253Z,43.80
2023-01-25T22:18:38.932Z,49.03
2023-01-25T22:20:41.123Z,45.00
2023-01-25T22:22:43.240Z,48.20
2023-01-25T22:24:46.866Z,44.40
2023-01-25T22:26:48.930Z,46.57
2023-01-25T22:28:53.741Z,51.40
2023-01-25T22:30:55.954Z,42.10
2023-01-25T22:32:58.099Z,45.80
2023-01-25T22:35:00.297Z,47.50
2023-01-25T22:37:02.361Z,43.23
2023-01-25T22:39:04.507Z,44.77
2023-01-25T22:41:09.525Z,49.33
2023-01-25T22:43:11.650Z,43.37
2023-01-25T22:45:13.818Z,41.93
2023-01-25T22:47:16.040Z,47.83
2023-01-25T22:49:18.177Z,52.33
2023-01-25T22:51:25.067Z,53.50
2023-01-25T22:53:27.701Z,50.60
2023-01-25T22:55:29.836Z,54.30
2023-01-25T22:57:31.937Z,45.50
2023-01-25T22:59:34.047Z,61.87
2023-01-25T23:01:36.275Z,60.70
2023-01-25T23:03:38.718Z,53.40
2023-01-25T23:05:40.916Z,59.67
2023-01-25T23:07:43.101Z,50.07
2023-01-25T23:09:48.339Z,54.47
2023-01-25T23:11:50.422Z,45.37
2023-01-25T23:14:19.600Z,56.00
2023-01-25T23:16:21.723Z,41.23
2023-01-25T23:18:42.480Z,55.17
2023-01-25T23:20:44.572Z,56.77
2023-01-25T23:22:46.731Z,51.73
2023-01-25T23:24:48.937Z,41.47
2023-01-25T23:26:51.056Z,45.47
2023-01-25T23:28:55.482Z,51.13
2023-01-25T23:31:11.343Z,50.50
2023-01-25T23:33:32.524Z,52.60
2023-01-25T23:35:34.704Z,46.70
2023-01-25T23:37:36.834Z,48.93
2023-01-25T23:39:38.945Z,50.77
2023-01-25T23:41:41.157Z,45.73
2023-01-25T23:43:43.800Z,52.53
2023-01-25T23:45:45.927Z,38.33
2023-01-25T23:47:48.073Z,46.90
2023-01-25T23:49:50.237Z,40.70
2023-01-25T23:51:52.416Z,48.67
2023-01-25T23:53:55.830Z,62.27
2023-01-25T23:55:59.878Z,39.73
2023-01-25T23:58:02.504Z,45.00
